Meteo Giornale » Osservazioni meteo Brasile » Belo Horizonte
ore: 17:00 - Osservazioni Meteo Belo Horizonte
Lat. 19° 56' S Lon. 43° 56' W Alt. 850 metri s.l.m.
31 °C
Nuvoloso
Temp. 24 Ore
18 °C
33 °C
Ovest/Nord-Ovest
13 Km/h
Dew point 12 °C
Umidità 31 %
Visibilità 10 Km
Il sole sorge alle ore 06:03
Il sole tramonta alle ore 17:47
| Data e Ora | Cielo e Fenomeni | T °C | DP °C | Um. % | Pres. hPa | Vis. km | Vento km/h | |
|---|---|---|---|---|---|---|---|---|
| Oggi h: 17:00 | Nuvoloso | 31 | 12 | 31 | 1013 | 10 | O/NO 13 | |
| Oggi h: 16:00 | Nuvoloso | 32 | 11 | 27 | 1013 | 10 | NO 24 | |
| Oggi h: 15:00 | Nuvoloso | 33 | 12 | 27 | 1013 | 10 | O/NO 24 | |
| Oggi h: 14:00 | Nuvoloso | 24 | 12 | 47 | 1014 | 10 | N/NO 22.2 | |
| Oggi h: 13:00 | Sereno | 33 | 12 | 27 | 1015 | 10 | N/NO 24 | |
| Oggi h: 12:00 | Sereno | 32 | 12 | 29 | 1016 | 10 | N 22.2 | |
| Oggi h: 11:00 | Sereno | 29 | 12 | 35 | 1017 | 10 | N 25.9 | |
| Oggi h: 10:00 | Sereno | 26 | 12 | 41 | 1018 | 10 | N 16.7 | |
| Oggi h: 09:00 | Sereno | 25 | 14 | 50 | 1018 | 10 | N 1.8 | |
| Oggi h: 08:00 | Sereno | 20 | 14 | 68 | 1018 | 10 | N 3.7 | |
| Oggi h: 07:00 | Sereno | 18 | 15 | 82 | 1017 | 10 | N 3.7 | |
| Oggi h: 06:00 | Sereno | 21 | 12 | 56 | 1016 | 10 | E/NE 13 | |
| Oggi h: 05:00 | Sereno | 19 | 14 | 72 | 1016 | 10 | N 3.7 | |
| Oggi h: 04:00 | Sereno | 19 | 14 | 72 | 1016 | 10 | N 0 | |
| Oggi h: 03:00 | Sereno | 21 | 13 | 60 | 1016 | 10 | E 11.1 | |
| Oggi h: 02:00 | Sereno | 22 | 14 | 60 | 1016 | 10 | E 7.4 | |
| Oggi h: 01:00 | Sereno | 22 | 14 | 60 | 1017 | 10 | E/NE 11.1 | |
| Oggi h: 00:00 | Sereno | 23 | 15 | 60 | 1018 | 10 | N 5.5 | |
| Ieri h: 23:00 | Sereno | 22 | 16 | 68 | 1018 | 10 | N 1.8 | |
| Ieri h: 22:00 | Sereno | 22 | 16 | 68 | 1018 | 10 | N 1.8 | |
| Ieri h: 21:00 | Sereno | 24 | 17 | 64 | 1017 | 10 | E 13 | |
| Ieri h: 20:00 | Sereno | 24 | 16 | 60 | 1017 | 10 | E/SE 14.8 | |
| Ieri h: 19:00 | Sereno | 26 | 16 | 54 | 1017 | 10 | E 13 | |



